sensor_id;sensor_type;location;lat;lon;timestamp;P1;durP1;ratioP1;P2;durP2;ratioP2
19547;SDS011;9919;58.014;11.826;2023-02-21T00:01:50;3.95;;;1.08;;
19547;SDS011;9919;58.014;11.826;2023-02-21T00:04:10;1.25;;;0.80;;
19547;SDS011;9919;58.014;11.826;2023-02-21T00:06:30;2.13;;;0.90;;
19547;SDS011;9919;58.014;11.826;2023-02-21T00:08:50;2.67;;;0.68;;
19547;SDS011;9919;58.014;11.826;2023-02-21T00:11:10;0.68;;;0.50;;
19547;SDS011;9919;58.014;11.826;2023-02-21T00:13:30;2.42;;;0.70;;
19547;SDS011;9919;58.014;11.826;2023-02-21T00:15:53;0.77;;;0.63;;
19547;SDS011;9919;58.014;11.826;2023-02-21T00:18:13;2.25;;;0.50;;
19547;SDS011;9919;58.014;11.826;2023-02-21T00:20:33;2.00;;;0.73;;
19547;SDS011;9919;58.014;11.826;2023-02-21T00:22:52;0.65;;;0.47;;
19547;SDS011;9919;58.014;11.826;2023-02-21T00:25:13;1.00;;;0.80;;
19547;SDS011;9919;58.014;11.826;2023-02-21T00:27:33;1.63;;;0.73;;
19547;SDS011;9919;58.014;11.826;2023-02-21T00:29:53;1.42;;;0.77;;
19547;SDS011;9919;58.014;11.826;2023-02-21T00:32:13;0.75;;;0.40;;
19547;SDS011;9919;58.014;11.826;2023-02-21T00:34:34;1.55;;;0.77;;
19547;SDS011;9919;58.014;11.826;2023-02-21T00:36:55;1.80;;;1.10;;
19547;SDS011;9919;58.014;11.826;2023-02-21T00:39:16;2.85;;;1.02;;
19547;SDS011;9919;58.014;11.826;2023-02-21T00:41:36;1.98;;;0.93;;
19547;SDS011;9919;58.014;11.826;2023-02-21T00:43:56;1.88;;;0.75;;
19547;SDS011;9919;58.014;11.826;2023-02-21T00:46:16;4.10;;;1.02;;
19547;SDS011;9919;58.014;11.826;2023-02-21T00:48:37;1.95;;;1.20;;
19547;SDS011;9919;58.014;11.826;2023-02-21T00:50:56;1.00;;;0.65;;
19547;SDS011;9919;58.014;11.826;2023-02-21T00:53:16;1.17;;;1.00;;
19547;SDS011;9919;58.014;11.826;2023-02-21T00:55:36;2.33;;;1.08;;
19547;SDS011;9919;58.014;11.826;2023-02-21T00:57:56;1.40;;;0.82;;
19547;SDS011;9919;58.014;11.826;2023-02-21T01:00:17;3.08;;;0.77;;
19547;SDS011;9919;58.014;11.826;2023-02-21T01:02:39;0.63;;;0.47;;
19547;SDS011;9919;58.014;11.826;2023-02-21T01:04:59;4.03;;;0.90;;
19547;SDS011;9919;58.014;11.826;2023-02-21T01:07:18;0.60;;;0.60;;
19547;SDS011;9919;58.014;11.826;2023-02-21T01:09:39;2.95;;;0.52;;
19547;SDS011;9919;58.014;11.826;2023-02-21T01:11:58;2.80;;;0.82;;
19547;SDS011;9919;58.014;11.826;2023-02-21T01:14:19;2.90;;;1.02;;
19547;SDS011;9919;58.014;11.826;2023-02-21T01:16:39;2.92;;;0.80;;
19547;SDS011;9919;58.014;11.826;2023-02-21T01:18:59;3.40;;;1.00;;
19547;SDS011;9919;58.014;11.826;2023-02-21T01:21:19;0.73;;;0.73;;
19547;SDS011;9919;58.014;11.826;2023-02-21T01:23:40;1.45;;;0.55;;
19547;SDS011;9919;58.014;11.826;2023-02-21T01:26:00;1.83;;;0.80;;
19547;SDS011;9919;58.014;11.826;2023-02-21T01:28:20;0.85;;;0.35;;
19547;SDS011;9919;58.014;11.826;2023-02-21T01:30:39;0.90;;;0.63;;
19547;SDS011;9919;58.014;11.826;2023-02-21T01:32:59;1.38;;;0.90;;
19547;SDS011;9919;58.014;11.826;2023-02-21T01:35:20;1.73;;;0.85;;
19547;SDS011;9919;58.014;11.826;2023-02-21T01:37:40;4.47;;;1.02;;
19547;SDS011;9919;58.014;11.826;2023-02-21T01:40:00;2.75;;;0.88;;
19547;SDS011;9919;58.014;11.826;2023-02-21T01:42:20;3.10;;;0.88;;
19547;SDS011;9919;58.014;11.826;2023-02-21T01:44:41;2.80;;;0.85;;
19547;SDS011;9919;58.014;11.826;2023-02-21T01:47:02;2.15;;;0.85;;
19547;SDS011;9919;58.014;11.826;2023-02-21T01:49:23;0.73;;;0.70;;
19547;SDS011;9919;58.014;11.826;2023-02-21T01:51:43;2.05;;;0.73;;
19547;SDS011;9919;58.014;11.826;2023-02-21T01:54:03;2.60;;;1.08;;
19547;SDS011;9919;58.014;11.826;2023-02-21T01:56:23;1.33;;;0.68;;
19547;SDS011;9919;58.014;11.826;2023-02-21T01:58:44;1.83;;;1.02;;
19547;SDS011;9919;58.014;11.826;2023-02-21T02:01:05;1.15;;;0.82;;
19547;SDS011;9919;58.014;11.826;2023-02-21T02:03:26;3.97;;;0.85;;
19547;SDS011;9919;58.014;11.826;2023-02-21T02:05:47;0.80;;;0.70;;
19547;SDS011;9919;58.014;11.826;2023-02-21T02:08:16;2.67;;;0.82;;
19547;SDS011;9919;58.014;11.826;2023-02-21T02:10:37;1.83;;;0.63;;
19547;SDS011;9919;58.014;11.826;2023-02-21T02:18:08;2.78;;;0.88;;
19547;SDS011;9919;58.014;11.826;2023-02-21T02:22:25;1.45;;;0.80;;
19547;SDS011;9919;58.014;11.826;2023-02-21T02:37:51;2.05;;;0.73;;
19547;SDS011;9919;58.014;11.826;2023-02-21T02:40:02;3.72;;;1.30;;
19547;SDS011;9919;58.014;11.826;2023-02-21T02:42:34;0.57;;;0.40;;
19547;SDS011;9919;58.014;11.826;2023-02-21T02:44:49;0.60;;;0.60;;
19547;SDS011;9919;58.014;11.826;2023-02-21T02:47:18;0.98;;;0.73;;
19547;SDS011;9919;58.014;11.826;2023-02-21T02:49:26;2.58;;;0.90;;
19547;SDS011;9919;58.014;11.826;2023-02-21T02:51:28;1.02;;;0.75;;
19547;SDS011;9919;58.014;11.826;2023-02-21T02:53:33;1.60;;;0.68;;
19547;SDS011;9919;58.014;11.826;2023-02-21T02:55:37;0.93;;;0.70;;
19547;SDS011;9919;58.014;11.826;2023-02-21T02:57:44;0.93;;;0.40;;
19547;SDS011;9919;58.014;11.826;2023-02-21T02:59:47;2.67;;;1.00;;
19547;SDS011;9919;58.014;11.826;2023-02-21T03:11:45;0.98;;;0.52;;
19547;SDS011;9919;58.014;11.826;2023-02-21T03:15:48;3.20;;;0.90;;
19547;SDS011;9919;58.014;11.826;2023-02-21T03:18:05;0.63;;;0.38;;
19547;SDS011;9919;58.014;11.826;2023-02-21T03:20:11;1.42;;;0.75;;
19547;SDS011;9919;58.014;11.826;2023-02-21T03:22:14;1.13;;;0.55;;
19547;SDS011;9919;58.014;11.826;2023-02-21T03:24:18;2.10;;;0.75;;
19547;SDS011;9919;58.014;11.826;2023-02-21T03:26:20;1.73;;;0.73;;
19547;SDS011;9919;58.014;11.826;2023-02-21T03:28:21;0.70;;;0.70;;
19547;SDS011;9919;58.014;11.826;2023-02-21T03:30:24;0.70;;;0.35;;
19547;SDS011;9919;58.014;11.826;2023-02-21T03:34:40;0.50;;;0.50;;
19547;SDS011;9919;58.014;11.826;2023-02-21T03:36:42;0.98;;;0.57;;
19547;SDS011;9919;58.014;11.826;2023-02-21T03:38:43;0.45;;;0.45;;
19547;SDS011;9919;58.014;11.826;2023-02-21T03:40:45;1.33;;;0.75;;
19547;SDS011;9919;58.014;11.826;2023-02-21T03:42:47;0.63;;;0.60;;
19547;SDS011;9919;58.014;11.826;2023-02-21T03:44:50;0.47;;;0.40;;
19547;SDS011;9919;58.014;11.826;2023-02-21T03:46:52;0.57;;;0.38;;
19547;SDS011;9919;58.014;11.826;2023-02-21T03:48:53;2.55;;;0.40;;
19547;SDS011;9919;58.014;11.826;2023-02-21T03:50:55;0.85;;;0.45;;
19547;SDS011;9919;58.014;11.826;2023-02-21T03:52:57;0.93;;;0.65;;
19547;SDS011;9919;58.014;11.826;2023-02-21T03:54:59;1.73;;;0.77;;
19547;SDS011;9919;58.014;11.826;2023-02-21T03:57:00;0.55;;;0.50;;
19547;SDS011;9919;58.014;11.826;2023-02-21T03:59:02;0.30;;;0.30;;
19547;SDS011;9919;58.014;11.826;2023-02-21T04:01:05;2.05;;;0.90;;
19547;SDS011;9919;58.014;11.826;2023-02-21T04:03:07;1.40;;;0.47;;
19547;SDS011;9919;58.014;11.826;2023-02-21T04:05:09;0.65;;;0.60;;
19547;SDS011;9919;58.014;11.826;2023-02-21T04:07:11;3.90;;;0.60;;
19547;SDS011;9919;58.014;11.826;2023-02-21T04:09:12;2.78;;;1.00;;
19547;SDS011;9919;58.014;11.826;2023-02-21T04:11:17;1.63;;;0.93;;
19547;SDS011;9919;58.014;11.826;2023-02-21T04:13:19;1.23;;;0.80;;
19547;SDS011;9919;58.014;11.826;2023-02-21T04:15:22;0.75;;;0.73;;
19547;SDS011;9919;58.014;11.826;2023-02-21T04:17:24;1.13;;;0.40;;
19547;SDS011;9919;58.014;11.826;2023-02-21T04:19:26;1.13;;;0.63;;
19547;SDS011;9919;58.014;11.826;2023-02-21T04:21:27;0.43;;;0.43;;
19547;SDS011;9919;58.014;11.826;2023-02-21T04:23:29;0.52;;;0.52;;
19547;SDS011;9919;58.014;11.826;2023-02-21T04:25:31;3.55;;;0.85;;
19547;SDS011;9919;58.014;11.826;2023-02-21T04:27:32;1.80;;;0.80;;
19547;SDS011;9919;58.014;11.826;2023-02-21T04:29:34;1.85;;;0.43;;
19547;SDS011;9919;58.014;11.826;2023-02-21T04:31:35;0.45;;;0.45;;
19547;SDS011;9919;58.014;11.826;2023-02-21T04:33:37;1.50;;;0.65;;
19547;SDS011;9919;58.014;11.826;2023-02-21T04:35:39;0.45;;;0.40;;
19547;SDS011;9919;58.014;11.826;2023-02-21T04:37:41;3.00;;;0.77;;
19547;SDS011;9919;58.014;11.826;2023-02-21T04:39:44;1.40;;;0.65;;
19547;SDS011;9919;58.014;11.826;2023-02-21T04:41:45;1.80;;;0.80;;
19547;SDS011;9919;58.014;11.826;2023-02-21T04:43:46;1.67;;;0.70;;
19547;SDS011;9919;58.014;11.826;2023-02-21T04:45:48;1.48;;;0.47;;
19547;SDS011;9919;58.014;11.826;2023-02-21T04:47:50;1.15;;;0.47;;
19547;SDS011;9919;58.014;11.826;2023-02-21T04:49:51;0.70;;;0.63;;
19547;SDS011;9919;58.014;11.826;2023-02-21T04:51:53;1.33;;;0.57;;
19547;SDS011;9919;58.014;11.826;2023-02-21T04:53:54;1.20;;;0.82;;
19547;SDS011;9919;58.014;11.826;2023-02-21T04:55:56;1.52;;;0.80;;
19547;SDS011;9919;58.014;11.826;2023-02-21T04:57:58;1.42;;;0.52;;
19547;SDS011;9919;58.014;11.826;2023-02-21T05:00:00;1.00;;;0.75;;
19547;SDS011;9919;58.014;11.826;2023-02-21T05:02:05;1.10;;;0.60;;
19547;SDS011;9919;58.014;11.826;2023-02-21T05:04:07;2.63;;;0.70;;
19547;SDS011;9919;58.014;11.826;2023-02-21T05:06:09;0.35;;;0.35;;
19547;SDS011;9919;58.014;11.826;2023-02-21T05:08:21;0.70;;;0.50;;
19547;SDS011;9919;58.014;11.826;2023-02-21T05:10:23;1.08;;;0.57;;
19547;SDS011;9919;58.014;11.826;2023-02-21T05:12:24;1.23;;;0.60;;
19547;SDS011;9919;58.014;11.826;2023-02-21T05:14:26;0.55;;;0.40;;
19547;SDS011;9919;58.014;11.826;2023-02-21T05:16:27;1.35;;;0.68;;
19547;SDS011;9919;58.014;11.826;2023-02-21T05:18:29;2.55;;;0.77;;
19547;SDS011;9919;58.014;11.826;2023-02-21T05:20:30;0.47;;;0.47;;
19547;SDS011;9919;58.014;11.826;2023-02-21T05:22:32;3.45;;;0.60;;
19547;SDS011;9919;58.014;11.826;2023-02-21T05:24:39;0.63;;;0.40;;
19547;SDS011;9919;58.014;11.826;2023-02-21T05:26:41;0.73;;;0.70;;
19547;SDS011;9919;58.014;11.826;2023-02-21T05:28:42;0.43;;;0.43;;
19547;SDS011;9919;58.014;11.826;2023-02-21T05:30:44;2.17;;;0.70;;
19547;SDS011;9919;58.014;11.826;2023-02-21T05:32:45;0.40;;;0.38;;
19547;SDS011;9919;58.014;11.826;2023-02-21T05:34:47;0.52;;;0.52;;
19547;SDS011;9919;58.014;11.826;2023-02-21T05:36:48;1.95;;;0.50;;
19547;SDS011;9919;58.014;11.826;2023-02-21T05:38:51;2.33;;;0.50;;
19547;SDS011;9919;58.014;11.826;2023-02-21T05:40:56;0.30;;;0.30;;
19547;SDS011;9919;58.014;11.826;2023-02-21T05:42:57;0.98;;;0.60;;
19547;SDS011;9919;58.014;11.826;2023-02-21T05:44:58;1.10;;;0.60;;
19547;SDS011;9919;58.014;11.826;2023-02-21T05:47:01;1.30;;;0.60;;
19547;SDS011;9919;58.014;11.826;2023-02-21T05:49:03;2.08;;;0.60;;
19547;SDS011;9919;58.014;11.826;2023-02-21T05:51:04;2.05;;;0.50;;
19547;SDS011;9919;58.014;11.826;2023-02-21T05:53:06;4.80;;;0.75;;
19547;SDS011;9919;58.014;11.826;2023-02-21T05:55:10;0.68;;;0.47;;
19547;SDS011;9919;58.014;11.826;2023-02-21T05:57:12;3.50;;;0.70;;
19547;SDS011;9919;58.014;11.826;2023-02-21T05:59:13;2.42;;;0.90;;
19547;SDS011;9919;58.014;11.826;2023-02-21T06:01:18;1.08;;;0.45;;
19547;SDS011;9919;58.014;11.826;2023-02-21T06:03:20;1.95;;;0.50;;
19547;SDS011;9919;58.014;11.826;2023-02-21T06:05:23;0.55;;;0.55;;
19547;SDS011;9919;58.014;11.826;2023-02-21T06:07:24;0.93;;;0.32;;
19547;SDS011;9919;58.014;11.826;2023-02-21T06:09:26;1.42;;;0.80;;
19547;SDS011;9919;58.014;11.826;2023-02-21T06:11:31;1.70;;;0.63;;
19547;SDS011;9919;58.014;11.826;2023-02-21T06:13:34;1.92;;;0.73;;
19547;SDS011;9919;58.014;11.826;2023-02-21T06:15:36;0.50;;;0.45;;
19547;SDS011;9919;58.014;11.826;2023-02-21T06:17:37;1.17;;;0.32;;
19547;SDS011;9919;58.014;11.826;2023-02-21T06:19:39;1.55;;;0.55;;
19547;SDS011;9919;58.014;11.826;2023-02-21T06:21:41;0.52;;;0.52;;
19547;SDS011;9919;58.014;11.826;2023-02-21T06:23:42;0.95;;;0.30;;
19547;SDS011;9919;58.014;11.826;2023-02-21T06:25:44;0.43;;;0.43;;
19547;SDS011;9919;58.014;11.826;2023-02-21T06:27:46;0.10;;;0.10;;
19547;SDS011;9919;58.014;11.826;2023-02-21T06:29:48;0.70;;;0.32;;
19547;SDS011;9919;58.014;11.826;2023-02-21T06:31:54;0.80;;;0.50;;
19547;SDS011;9919;58.014;11.826;2023-02-21T06:33:57;1.85;;;0.50;;
19547;SDS011;9919;58.014;11.826;2023-02-21T06:36:02;0.38;;;0.38;;
19547;SDS011;9919;58.014;11.826;2023-02-21T06:38:07;3.30;;;0.77;;
19547;SDS011;9919;58.014;11.826;2023-02-21T06:40:08;0.43;;;0.30;;
19547;SDS011;9919;58.014;11.826;2023-02-21T06:42:16;0.70;;;0.20;;
19547;SDS011;9919;58.014;11.826;2023-02-21T06:44:19;0.57;;;0.32;;
19547;SDS011;9919;58.014;11.826;2023-02-21T06:46:22;3.25;;;0.73;;
19547;SDS011;9919;58.014;11.826;2023-02-21T06:48:24;0.75;;;0.47;;
19547;SDS011;9919;58.014;11.826;2023-02-21T06:50:27;1.15;;;0.40;;
19547;SDS011;9919;58.014;11.826;2023-02-21T06:52:29;0.88;;;0.50;;
19547;SDS011;9919;58.014;11.826;2023-02-21T06:54:31;0.38;;;0.30;;
19547;SDS011;9919;58.014;11.826;2023-02-21T06:56:32;1.02;;;0.32;;
19547;SDS011;9919;58.014;11.826;2023-02-21T06:58:33;1.10;;;0.50;;
19547;SDS011;9919;58.014;11.826;2023-02-21T07:00:35;0.60;;;0.45;;
19547;SDS011;9919;58.014;11.826;2023-02-21T07:02:36;1.27;;;0.82;;
19547;SDS011;9919;58.014;11.826;2023-02-21T07:04:38;1.70;;;0.43;;
19547;SDS011;9919;58.014;11.826;2023-02-21T07:06:39;0.50;;;0.43;;
19547;SDS011;9919;58.014;11.826;2023-02-21T07:08:40;1.95;;;0.77;;
19547;SDS011;9919;58.014;11.826;2023-02-21T07:10:42;1.90;;;0.60;;
19547;SDS011;9919;58.014;11.826;2023-02-21T07:12:45;0.43;;;0.40;;
19547;SDS011;9919;58.014;11.826;2023-02-21T07:14:46;1.05;;;0.80;;
19547;SDS011;9919;58.014;11.826;2023-02-21T07:16:49;0.57;;;0.57;;
19547;SDS011;9919;58.014;11.826;2023-02-21T07:18:50;0.80;;;0.35;;
19547;SDS011;9919;58.014;11.826;2023-02-21T07:20:52;0.10;;;0.10;;
19547;SDS011;9919;58.014;11.826;2023-02-21T07:22:53;1.75;;;0.63;;
19547;SDS011;9919;58.014;11.826;2023-02-21T07:24:55;0.57;;;0.30;;
19547;SDS011;9919;58.014;11.826;2023-02-21T07:26:56;2.35;;;0.45;;
19547;SDS011;9919;58.014;11.826;2023-02-21T07:28:59;0.63;;;0.60;;
19547;SDS011;9919;58.014;11.826;2023-02-21T07:31:00;0.63;;;0.57;;
19547;SDS011;9919;58.014;11.826;2023-02-21T07:33:01;0.15;;;0.15;;
19547;SDS011;9919;58.014;11.826;2023-02-21T07:35:03;0.75;;;0.73;;
19547;SDS011;9919;58.014;11.826;2023-02-21T07:37:05;1.05;;;0.30;;
19547;SDS011;9919;58.014;11.826;2023-02-21T07:39:06;1.45;;;0.28;;
19547;SDS011;9919;58.014;11.826;2023-02-21T07:41:08;0.30;;;0.30;;
19547;SDS011;9919;58.014;11.826;2023-02-21T07:43:09;0.30;;;0.30;;
19547;SDS011;9919;58.014;11.826;2023-02-21T07:45:11;1.55;;;0.50;;
19547;SDS011;9919;58.014;11.826;2023-02-21T07:47:13;2.25;;;0.50;;
19547;SDS011;9919;58.014;11.826;2023-02-21T07:49:15;1.48;;;0.50;;
19547;SDS011;9919;58.014;11.826;2023-02-21T07:51:16;0.45;;;0.35;;
19547;SDS011;9919;58.014;11.826;2023-02-21T07:53:18;0.30;;;0.30;;
19547;SDS011;9919;58.014;11.826;2023-02-21T07:55:19;0.65;;;0.50;;
19547;SDS011;9919;58.014;11.826;2023-02-21T07:57:21;0.68;;;0.60;;
19547;SDS011;9919;58.014;11.826;2023-02-21T07:59:23;1.02;;;0.57;;
19547;SDS011;9919;58.014;11.826;2023-02-21T08:01:25;0.30;;;0.30;;
19547;SDS011;9919;58.014;11.826;2023-02-21T08:03:27;0.98;;;0.55;;
19547;SDS011;9919;58.014;11.826;2023-02-21T08:05:28;0.30;;;0.30;;
19547;SDS011;9919;58.014;11.826;2023-02-21T08:07:30;0.40;;;0.40;;
19547;SDS011;9919;58.014;11.826;2023-02-21T08:09:31;0.20;;;0.20;;
19547;SDS011;9919;58.014;11.826;2023-02-21T08:11:33;0.30;;;0.30;;
19547;SDS011;9919;58.014;11.826;2023-02-21T08:13:35;2.40;;;0.55;;
19547;SDS011;9919;58.014;11.826;2023-02-21T08:15:37;2.22;;;0.70;;
19547;SDS011;9919;58.014;11.826;2023-02-21T08:17:38;0.30;;;0.30;;
19547;SDS011;9919;58.014;11.826;2023-02-21T08:19:39;0.30;;;0.30;;
19547;SDS011;9919;58.014;11.826;2023-02-21T08:21:44;0.45;;;0.20;;
19547;SDS011;9919;58.014;11.826;2023-02-21T08:23:46;0.45;;;0.45;;
19547;SDS011;9919;58.014;11.826;2023-02-21T08:25:51;0.50;;;0.50;;
19547;SDS011;9919;58.014;11.826;2023-02-21T08:27:53;0.30;;;0.30;;
19547;SDS011;9919;58.014;11.826;2023-02-21T08:29:55;0.38;;;0.38;;
19547;SDS011;9919;58.014;11.826;2023-02-21T08:31:57;0.38;;;0.38;;
19547;SDS011;9919;58.014;11.826;2023-02-21T08:33:58;1.13;;;0.73;;
19547;SDS011;9919;58.014;11.826;2023-02-21T08:35:59;0.73;;;0.38;;
19547;SDS011;9919;58.014;11.826;2023-02-21T08:38:01;0.60;;;0.45;;
19547;SDS011;9919;58.014;11.826;2023-02-21T08:40:03;0.70;;;0.40;;
19547;SDS011;9919;58.014;11.826;2023-02-21T08:42:06;1.15;;;0.70;;
19547;SDS011;9919;58.014;11.826;2023-02-21T08:44:08;0.50;;;0.50;;
19547;SDS011;9919;58.014;11.826;2023-02-21T08:46:10;0.40;;;0.40;;
19547;SDS011;9919;58.014;11.826;2023-02-21T08:48:11;0.20;;;0.20;;
19547;SDS011;9919;58.014;11.826;2023-02-21T08:50:13;0.80;;;0.35;;
19547;SDS011;9919;58.014;11.826;2023-02-21T08:52:15;1.20;;;0.50;;
19547;SDS011;9919;58.014;11.826;2023-02-21T08:54:17;0.68;;;0.57;;
19547;SDS011;9919;58.014;11.826;2023-02-21T08:56:22;0.57;;;0.57;;
19547;SDS011;9919;58.014;11.826;2023-02-21T08:58:24;0.30;;;0.30;;
19547;SDS011;9919;58.014;11.826;2023-02-21T09:00:25;0.68;;;0.35;;
19547;SDS011;9919;58.014;11.826;2023-02-21T09:02:27;0.90;;;0.47;;
19547;SDS011;9919;58.014;11.826;2023-02-21T09:04:29;0.43;;;0.43;;
19547;SDS011;9919;58.014;11.826;2023-02-21T09:06:31;0.47;;;0.40;;
19547;SDS011;9919;58.014;11.826;2023-02-21T09:08:33;1.17;;;0.50;;
19547;SDS011;9919;58.014;11.826;2023-02-21T09:10:36;0.63;;;0.25;;
19547;SDS011;9919;58.014;11.826;2023-02-21T09:12:46;0.80;;;0.43;;
19547;SDS011;9919;58.014;11.826;2023-02-21T09:14:47;1.33;;;0.50;;
19547;SDS011;9919;58.014;11.826;2023-02-21T09:16:48;0.63;;;0.40;;
19547;SDS011;9919;58.014;11.826;2023-02-21T09:18:53;1.38;;;0.30;;
19547;SDS011;9919;58.014;11.826;2023-02-21T09:20:56;0.88;;;0.35;;
19547;SDS011;9919;58.014;11.826;2023-02-21T09:22:58;0.30;;;0.30;;
19547;SDS011;9919;58.014;11.826;2023-02-21T09:25:00;0.65;;;0.30;;
19547;SDS011;9919;58.014;11.826;2023-02-21T09:27:02;1.55;;;0.30;;
19547;SDS011;9919;58.014;11.826;2023-02-21T09:29:03;1.25;;;0.30;;
19547;SDS011;9919;58.014;11.826;2023-02-21T09:31:05;0.50;;;0.32;;
19547;SDS011;9919;58.014;11.826;2023-02-21T09:33:07;0.20;;;0.20;;
19547;SDS011;9919;58.014;11.826;2023-02-21T09:35:09;0.20;;;0.20;;
19547;SDS011;9919;58.014;11.826;2023-02-21T09:37:14;0.35;;;0.30;;
19547;SDS011;9919;58.014;11.826;2023-02-21T09:39:16;0.13;;;0.13;;
19547;SDS011;9919;58.014;11.826;2023-02-21T09:41:17;0.20;;;0.20;;
19547;SDS011;9919;58.014;11.826;2023-02-21T09:43:23;0.30;;;0.30;;
19547;SDS011;9919;58.014;11.826;2023-02-21T09:45:33;1.10;;;0.30;;
19547;SDS011;9919;58.014;11.826;2023-02-21T09:47:35;0.20;;;0.20;;
19547;SDS011;9919;58.014;11.826;2023-02-21T09:49:38;0.20;;;0.20;;
19547;SDS011;9919;58.014;11.826;2023-02-21T09:51:41;0.25;;;0.25;;
19547;SDS011;9919;58.014;11.826;2023-02-21T09:53:43;0.32;;;0.32;;
19547;SDS011;9919;58.014;11.826;2023-02-21T09:55:47;0.25;;;0.25;;
19547;SDS011;9919;58.014;11.826;2023-02-21T09:57:49;0.15;;;0.15;;
19547;SDS011;9919;58.014;11.826;2023-02-21T09:59:51;0.50;;;0.25;;
19547;SDS011;9919;58.014;11.826;2023-02-21T10:04:18;0.45;;;0.30;;
19547;SDS011;9919;58.014;11.826;2023-02-21T10:11:12;0.80;;;0.30;;
19547;SDS011;9919;58.014;11.826;2023-02-21T10:13:50;0.38;;;0.20;;
19547;SDS011;9919;58.014;11.826;2023-02-21T10:20:50;0.20;;;0.20;;
19547;SDS011;9919;58.014;11.826;2023-02-21T10:22:53;0.32;;;0.30;;
19547;SDS011;9919;58.014;11.826;2023-02-21T10:24:55;0.57;;;0.35;;
19547;SDS011;9919;58.014;11.826;2023-02-21T10:26:58;0.43;;;0.30;;
19547;SDS011;9919;58.014;11.826;2023-02-21T10:29:02;0.35;;;0.30;;
19547;SDS011;9919;58.014;11.826;2023-02-21T10:31:42;0.43;;;0.30;;
19547;SDS011;9919;58.014;11.826;2023-02-21T10:33:37;0.40;;;0.25;;
19547;SDS011;9919;58.014;11.826;2023-02-21T10:35:39;0.30;;;0.30;;
19547;SDS011;9919;58.014;11.826;2023-02-21T10:37:45;0.03;;;0.03;;
19547;SDS011;9919;58.014;11.826;2023-02-21T10:39:55;0.38;;;0.38;;
19547;SDS011;9919;58.014;11.826;2023-02-21T10:42:00;0.47;;;0.20;;
19547;SDS011;9919;58.014;11.826;2023-02-21T10:44:47;0.30;;;0.30;;
19547;SDS011;9919;58.014;11.826;2023-02-21T10:46:29;0.50;;;0.50;;
19547;SDS011;9919;58.014;11.826;2023-02-21T10:48:37;0.30;;;0.30;;
19547;SDS011;9919;58.014;11.826;2023-02-21T10:52:49;0.40;;;0.40;;
19547;SDS011;9919;58.014;11.826;2023-02-21T10:55:01;1.55;;;0.28;;
19547;SDS011;9919;58.014;11.826;2023-02-21T10:57:09;0.88;;;0.22;;
19547;SDS011;9919;58.014;11.826;2023-02-21T10:59:20;0.43;;;0.43;;
19547;SDS011;9919;58.014;11.826;2023-02-21T11:03:31;0.63;;;0.30;;
19547;SDS011;9919;58.014;11.826;2023-02-21T11:05:33;0.32;;;0.20;;
19547;SDS011;9919;58.014;11.826;2023-02-21T11:07:35;0.20;;;0.20;;
19547;SDS011;9919;58.014;11.826;2023-02-21T11:09:41;1.10;;;0.35;;
19547;SDS011;9919;58.014;11.826;2023-02-21T11:11:43;0.28;;;0.28;;
19547;SDS011;9919;58.014;11.826;2023-02-21T11:13:45;0.32;;;0.32;;
19547;SDS011;9919;58.014;11.826;2023-02-21T11:15:46;0.90;;;0.75;;
19547;SDS011;9919;58.014;11.826;2023-02-21T11:18:01;0.57;;;0.40;;
19547;SDS011;9919;58.014;11.826;2023-02-21T11:20:16;0.28;;;0.28;;
19547;SDS011;9919;58.014;11.826;2023-02-21T11:22:23;0.30;;;0.30;;
19547;SDS011;9919;58.014;11.826;2023-02-21T11:24:25;0.10;;;0.10;;
19547;SDS011;9919;58.014;11.826;2023-02-21T11:26:27;0.45;;;0.40;;
19547;SDS011;9919;58.014;11.826;2023-02-21T11:28:31;0.30;;;0.30;;
19547;SDS011;9919;58.014;11.826;2023-02-21T11:30:39;0.20;;;0.20;;
19547;SDS011;9919;58.014;11.826;2023-02-21T11:33:03;0.30;;;0.30;;
19547;SDS011;9919;58.014;11.826;2023-02-21T11:37:19;0.50;;;0.50;;
19547;SDS011;9919;58.014;11.826;2023-02-21T11:39:24;0.50;;;0.50;;
19547;SDS011;9919;58.014;11.826;2023-02-21T11:41:35;0.35;;;0.35;;
19547;SDS011;9919;58.014;11.826;2023-02-21T11:43:37;0.40;;;0.40;;
19547;SDS011;9919;58.014;11.826;2023-02-21T11:48:12;0.73;;;0.73;;
19547;SDS011;9919;58.014;11.826;2023-02-21T11:52:29;0.30;;;0.30;;
19547;SDS011;9919;58.014;11.826;2023-02-21T11:54:37;0.40;;;0.32;;
19547;SDS011;9919;58.014;11.826;2023-02-21T11:58:52;0.30;;;0.30;;
19547;SDS011;9919;58.014;11.826;2023-02-21T12:01:27;0.52;;;0.50;;
19547;SDS011;9919;58.014;11.826;2023-02-21T12:08:53;0.20;;;0.20;;
19547;SDS011;9919;58.014;11.826;2023-02-21T12:12:58;0.40;;;0.40;;
19547;SDS011;9919;58.014;11.826;2023-02-21T12:23:07;0.38;;;0.38;;
19547;SDS011;9919;58.014;11.826;2023-02-21T12:29:49;0.45;;;0.30;;
19547;SDS011;9919;58.014;11.826;2023-02-21T12:46:08;0.40;;;0.40;;
19547;SDS011;9919;58.014;11.826;2023-02-21T12:50:20;0.30;;;0.20;;
19547;SDS011;9919;58.014;11.826;2023-02-21T12:55:02;0.25;;;0.25;;
19547;SDS011;9919;58.014;11.826;2023-02-21T12:57:27;0.20;;;0.10;;
19547;SDS011;9919;58.014;11.826;2023-02-21T12:59:41;0.30;;;0.30;;
19547;SDS011;9919;58.014;11.826;2023-02-21T13:01:48;0.35;;;0.30;;
19547;SDS011;9919;58.014;11.826;2023-02-21T13:04:10;0.22;;;0.22;;
19547;SDS011;9919;58.014;11.826;2023-02-21T13:13:14;0.20;;;0.20;;
19547;SDS011;9919;58.014;11.826;2023-02-21T13:15:21;0.20;;;0.20;;
19547;SDS011;9919;58.014;11.826;2023-02-21T13:17:24;0.10;;;0.10;;
19547;SDS011;9919;58.014;11.826;2023-02-21T13:19:30;0.13;;;0.13;;
19547;SDS011;9919;58.014;11.826;2023-02-21T13:23:56;0.20;;;0.20;;
19547;SDS011;9919;58.014;11.826;2023-02-21T13:26:34;0.28;;;0.28;;
19547;SDS011;9919;58.014;11.826;2023-02-21T13:28:57;0.50;;;0.35;;
19547;SDS011;9919;58.014;11.826;2023-02-21T13:30:59;0.30;;;0.30;;
19547;SDS011;9919;58.014;11.826;2023-02-21T13:33:02;0.20;;;0.20;;
19547;SDS011;9919;58.014;11.826;2023-02-21T13:35:06;0.15;;;0.15;;
19547;SDS011;9919;58.014;11.826;2023-02-21T13:37:19;0.20;;;0.20;;
19547;SDS011;9919;58.014;11.826;2023-02-21T13:39:26;0.20;;;0.20;;
19547;SDS011;9919;58.014;11.826;2023-02-21T13:41:36;0.30;;;0.30;;
19547;SDS011;9919;58.014;11.826;2023-02-21T13:43:49;1.85;;;0.25;;
19547;SDS011;9919;58.014;11.826;2023-02-21T13:45:52;0.25;;;0.25;;
19547;SDS011;9919;58.014;11.826;2023-02-21T13:50:03;0.10;;;0.10;;
19547;SDS011;9919;58.014;11.826;2023-02-21T13:52:51;0.52;;;0.20;;
19547;SDS011;9919;58.014;11.826;2023-02-21T13:57:30;0.10;;;0.10;;
19547;SDS011;9919;58.014;11.826;2023-02-21T13:59:33;0.20;;;0.20;;
19547;SDS011;9919;58.014;11.826;2023-02-21T14:03:37;0.20;;;0.20;;
19547;SDS011;9919;58.014;11.826;2023-02-21T14:07:54;0.22;;;0.20;;
19547;SDS011;9919;58.014;11.826;2023-02-21T14:09:56;0.17;;;0.17;;
19547;SDS011;9919;58.014;11.826;2023-02-21T14:11:57;0.20;;;0.20;;
19547;SDS011;9919;58.014;11.826;2023-02-21T14:14:17;0.20;;;0.20;;
19547;SDS011;9919;58.014;11.826;2023-02-21T14:16:33;1.55;;;0.20;;
19547;SDS011;9919;58.014;11.826;2023-02-21T14:19:06;0.10;;;0.10;;
19547;SDS011;9919;58.014;11.826;2023-02-21T14:21:11;0.32;;;0.32;;
19547;SDS011;9919;58.014;11.826;2023-02-21T14:23:16;0.22;;;0.22;;
19547;SDS011;9919;58.014;11.826;2023-02-21T14:25:21;0.20;;;0.20;;
19547;SDS011;9919;58.014;11.826;2023-02-21T14:31:53;0.28;;;0.28;;
19547;SDS011;9919;58.014;11.826;2023-02-21T14:34:01;0.17;;;0.17;;
19547;SDS011;9919;58.014;11.826;2023-02-21T14:36:04;0.10;;;0.10;;
19547;SDS011;9919;58.014;11.826;2023-02-21T14:38:19;0.10;;;0.10;;
19547;SDS011;9919;58.014;11.826;2023-02-21T14:40:29;0.10;;;0.10;;
19547;SDS011;9919;58.014;11.826;2023-02-21T14:45:08;0.30;;;0.30;;
19547;SDS011;9919;58.014;11.826;2023-02-21T14:54:32;0.20;;;0.20;;
19547;SDS011;9919;58.014;11.826;2023-02-21T14:59:24;0.30;;;0.30;;
19547;SDS011;9919;58.014;11.826;2023-02-21T15:04:01;0.20;;;0.20;;